createdAt,value
2023-03-05T00:01:30.554Z,1.60
2023-03-05T00:03:58.940Z,1.70
2023-03-05T00:06:29.024Z,1.70
2023-03-05T00:08:58.425Z,1.70
2023-03-05T00:11:29.729Z,1.60
2023-03-05T00:13:58.854Z,1.70
2023-03-05T00:16:29.418Z,1.70
2023-03-05T00:18:59.161Z,1.70
2023-03-05T00:21:29.311Z,1.70
2023-03-05T00:23:58.360Z,1.70
2023-03-05T00:26:27.766Z,1.70
2023-03-05T00:28:57.060Z,1.70
2023-03-05T00:31:30.325Z,1.70
2023-03-05T00:34:01.665Z,1.70
2023-03-05T00:36:29.795Z,1.80
2023-03-05T00:38:58.300Z,1.80
2023-03-05T00:41:26.619Z,1.70
2023-03-05T00:43:55.231Z,1.80
2023-03-05T00:46:24.521Z,1.80
2023-03-05T00:48:52.681Z,1.80
2023-03-05T00:51:22.973Z,1.80
2023-03-05T00:53:51.282Z,1.80
2023-03-05T00:56:19.625Z,1.80
2023-03-05T00:58:47.745Z,1.80
2023-03-05T01:01:16.809Z,1.70
2023-03-05T01:03:44.902Z,1.70
2023-03-05T01:06:15.113Z,1.70
2023-03-05T01:08:44.795Z,1.60
2023-03-05T01:11:13.212Z,1.70
2023-03-05T01:13:41.833Z,1.70
2023-03-05T01:16:10.233Z,1.70
2023-03-05T01:18:39.941Z,1.70
2023-03-05T01:21:09.048Z,1.70
2023-03-05T01:23:38.151Z,1.70
2023-03-05T01:26:08.574Z,1.70
2023-03-05T01:28:38.279Z,1.70
2023-03-05T01:31:09.788Z,1.70
2023-03-05T01:33:38.894Z,1.70
2023-03-05T01:36:10.122Z,1.70
2023-03-05T01:38:38.144Z,1.70
2023-03-05T01:41:07.819Z,1.70
2023-03-05T01:43:35.866Z,1.70
2023-03-05T01:46:28.207Z,1.70
2023-03-05T01:49:02.510Z,1.70
2023-03-05T01:51:33.189Z,1.70
2023-03-05T01:54:01.811Z,1.60
2023-03-05T01:56:32.165Z,1.60
2023-03-05T01:59:04.285Z,1.60
2023-03-05T02:01:35.285Z,1.50
2023-03-05T02:04:03.956Z,1.50
2023-03-05T02:06:32.397Z,1.50
2023-03-05T02:09:01.055Z,1.50
2023-03-05T02:11:29.174Z,1.50
2023-03-05T02:13:59.571Z,1.50
2023-03-05T02:16:29.276Z,1.50
2023-03-05T02:18:58.249Z,1.50
2023-03-05T02:21:36.710Z,1.50
2023-03-05T02:24:05.104Z,1.50
2023-03-05T02:26:33.171Z,1.50
2023-03-05T02:29:06.844Z,1.50
2023-03-05T02:31:35.078Z,1.50
2023-03-05T02:34:03.368Z,1.60
2023-03-05T02:36:33.072Z,1.50
2023-03-05T02:39:01.823Z,1.50
2023-03-05T02:41:30.008Z,1.50
2023-03-05T02:43:59.967Z,1.60
2023-03-05T02:46:28.311Z,1.60
2023-03-05T02:48:56.345Z,1.60
2023-03-05T02:51:25.492Z,1.60
2023-03-05T02:53:55.763Z,1.60
2023-03-05T02:56:27.199Z,1.60
2023-03-05T02:58:55.571Z,1.60
2023-03-05T03:01:23.807Z,1.60
2023-03-05T03:03:51.974Z,1.70
2023-03-05T03:06:20.046Z,1.70
2023-03-05T03:08:48.348Z,1.70
2023-03-05T03:11:18.673Z,1.70
2023-03-05T03:13:46.687Z,1.70
2023-03-05T03:16:17.886Z,1.70
2023-03-05T03:18:47.613Z,1.70
2023-03-05T03:21:21.894Z,1.70
2023-03-05T03:23:49.943Z,1.70
2023-03-05T03:26:20.284Z,1.70
2023-03-05T03:28:48.492Z,1.70
2023-03-05T03:31:16.641Z,1.70
2023-03-05T03:33:45.226Z,1.70
2023-03-05T03:36:13.618Z,1.70
2023-03-05T03:38:41.670Z,1.70
2023-03-05T03:41:10.284Z,1.70
2023-03-05T03:43:39.739Z,1.60
2023-03-05T03:46:08.641Z,1.60
2023-03-05T03:48:37.049Z,1.60
2023-03-05T03:51:07.502Z,1.60
2023-03-05T03:53:35.576Z,1.60
2023-03-05T03:56:04.493Z,1.60
2023-03-05T03:58:32.620Z,1.60
2023-03-05T04:01:02.254Z,1.70
2023-03-05T04:03:30.658Z,1.60
2023-03-05T04:05:58.709Z,1.60
2023-03-05T04:08:26.845Z,1.60
2023-03-05T04:10:54.972Z,1.70
2023-03-05T04:13:23.007Z,1.70
2023-03-05T04:15:51.342Z,1.70
2023-03-05T04:18:20.751Z,1.70
2023-03-05T04:20:48.965Z,1.70
2023-03-05T04:23:17.355Z,1.70
2023-03-05T04:25:46.156Z,1.70
2023-03-05T04:28:14.472Z,1.70
2023-03-05T04:30:42.654Z,1.80
2023-03-05T04:33:10.888Z,1.80
2023-03-05T04:35:40.395Z,1.80
2023-03-05T04:38:08.561Z,1.80
2023-03-05T04:40:36.933Z,1.80
2023-03-05T04:43:05.514Z,1.70
2023-03-05T04:45:33.762Z,1.70
2023-03-05T04:48:02.382Z,1.70
2023-03-05T04:50:30.417Z,1.70
2023-03-05T04:53:00.537Z,1.80
2023-03-05T04:55:29.114Z,1.80
2023-03-05T04:57:57.137Z,1.80
2023-03-05T05:00:25.517Z,1.80
2023-03-05T05:02:54.382Z,1.70
2023-03-05T05:05:24.273Z,1.70
2023-03-05T05:07:55.225Z,1.70
2023-03-05T05:10:25.492Z,1.70
2023-03-05T05:12:53.558Z,1.70
2023-03-05T05:15:21.719Z,1.70
2023-03-05T05:17:49.910Z,1.70
2023-03-05T05:20:18.619Z,1.70
2023-03-05T05:22:46.692Z,1.70
2023-03-05T05:25:14.733Z,1.70
2023-03-05T05:27:44.123Z,1.70
2023-03-05T05:30:13.312Z,1.60
2023-03-05T05:32:42.100Z,1.70
2023-03-05T05:35:11.849Z,1.70
2023-03-05T05:37:39.936Z,1.60
2023-03-05T05:40:09.663Z,1.70
2023-03-05T05:42:37.873Z,1.70
2023-03-05T05:45:08.832Z,1.70
2023-03-05T05:47:37.032Z,1.70
2023-03-05T05:50:05.507Z,1.70
2023-03-05T05:52:33.542Z,1.70
2023-03-05T05:55:01.599Z,1.70
2023-03-05T05:57:29.747Z,1.70
2023-03-05T05:59:58.079Z,1.60
2023-03-05T06:02:28.105Z,1.60
2023-03-05T06:04:58.133Z,1.60
2023-03-05T06:07:26.386Z,1.70
2023-03-05T06:09:54.382Z,1.70
2023-03-05T06:12:22.418Z,1.70
2023-03-05T06:14:50.636Z,1.70
2023-03-05T06:17:28.543Z,1.70
2023-03-05T06:19:58.399Z,1.70
2023-03-05T06:22:26.708Z,1.70
2023-03-05T06:24:54.719Z,1.80
2023-03-05T06:27:22.916Z,1.80
2023-03-05T06:29:54.194Z,1.70
2023-03-05T06:32:22.360Z,1.70
2023-03-05T06:34:50.876Z,1.80
2023-03-05T06:37:20.653Z,1.80
2023-03-05T06:39:48.752Z,1.80
2023-03-05T06:42:17.829Z,1.80
2023-03-05T06:44:48.190Z,1.80
2023-03-05T06:47:16.542Z,1.80
2023-03-05T06:49:44.625Z,1.80
2023-03-05T06:52:12.912Z,1.80
2023-03-05T06:54:42.342Z,1.80
2023-03-05T06:57:11.525Z,1.80
2023-03-05T06:59:39.570Z,1.80
2023-03-05T07:02:07.790Z,1.80
2023-03-05T07:04:35.928Z,1.80
2023-03-05T07:07:04.061Z,1.80
2023-03-05T07:09:32.111Z,1.80
2023-03-05T07:12:01.505Z,1.80
2023-03-05T07:14:29.606Z,1.90
2023-03-05T07:16:57.661Z,1.90
2023-03-05T07:19:25.671Z,1.90
2023-03-05T07:21:53.686Z,1.90
2023-03-05T07:24:21.759Z,1.90
2023-03-05T07:26:49.761Z,1.90
2023-03-05T07:29:19.140Z,1.90
2023-03-05T07:31:47.170Z,1.90
2023-03-05T07:34:15.174Z,2.00
2023-03-05T07:36:43.391Z,1.90
2023-03-05T07:39:12.870Z,2.00
2023-03-05T07:41:40.965Z,2.10
2023-03-05T07:44:09.042Z,2.10
2023-03-05T07:46:38.564Z,2.10
2023-03-05T07:49:07.225Z,2.20
2023-03-05T07:51:35.440Z,2.20
2023-03-05T07:54:03.591Z,2.20
2023-03-05T07:56:35.238Z,2.30
2023-03-05T07:59:05.358Z,2.30
2023-03-05T08:01:34.271Z,2.40
2023-03-05T08:04:05.166Z,2.40
2023-03-05T08:06:33.312Z,2.40
2023-03-05T08:09:01.587Z,2.50
2023-03-05T08:11:30.010Z,2.50
2023-03-05T08:13:59.484Z,2.50
2023-03-05T08:16:27.634Z,2.50
2023-03-05T08:18:58.241Z,2.60
2023-03-05T08:21:29.801Z,2.60
2023-03-05T08:23:59.018Z,2.60
2023-03-05T08:26:29.516Z,2.60
2023-03-05T08:28:57.646Z,2.70
2023-03-05T08:31:30.202Z,2.70
2023-03-05T08:34:00.509Z,2.80
2023-03-05T08:36:30.589Z,2.80
2023-03-05T08:39:00.417Z,2.80
2023-03-05T08:41:28.834Z,2.80
2023-03-05T08:43:57.002Z,2.80
2023-03-05T08:46:25.329Z,2.90
2023-03-05T08:48:53.646Z,2.90
2023-03-05T08:51:25.952Z,2.90
2023-03-05T08:53:57.419Z,2.90
2023-03-05T08:56:27.254Z,2.90
2023-03-05T08:58:55.441Z,2.80
2023-03-05T09:01:24.052Z,2.80
2023-03-05T09:03:52.298Z,2.90
2023-03-05T09:06:20.485Z,2.90
2023-03-05T09:08:48.548Z,2.90
2023-03-05T09:11:18.103Z,2.80
2023-03-05T09:13:47.151Z,2.90
2023-03-05T09:16:17.426Z,2.90
2023-03-05T09:18:45.769Z,2.90
2023-03-05T09:21:15.959Z,2.90
2023-03-05T09:23:44.917Z,2.90
2023-03-05T09:26:16.279Z,2.90
2023-03-05T09:28:46.035Z,3.00
2023-03-05T09:31:14.389Z,3.00
2023-03-05T09:33:42.524Z,3.10
2023-03-05T09:36:19.708Z,3.10
2023-03-05T09:38:47.812Z,3.20
2023-03-05T09:41:22.167Z,3.20
2023-03-05T09:43:59.857Z,3.20
2023-03-05T09:46:42.011Z,3.10
2023-03-05T09:49:18.683Z,3.20
2023-03-05T09:51:48.113Z,3.10
2023-03-05T09:54:19.943Z,3.20
2023-03-05T09:56:51.033Z,3.30
2023-03-05T09:59:27.566Z,3.30
2023-03-05T10:01:59.030Z,3.30
2023-03-05T10:04:44.333Z,3.30
2023-03-05T10:07:17.940Z,3.40
2023-03-05T10:09:49.801Z,3.40
2023-03-05T10:12:25.372Z,3.40
2023-03-05T10:14:55.959Z,3.40
2023-03-05T10:17:41.058Z,3.40
2023-03-05T10:20:26.083Z,3.40
2023-03-05T10:23:29.398Z,3.40
2023-03-05T10:26:08.655Z,3.50
2023-03-05T10:28:44.276Z,3.50
2023-03-05T10:31:24.893Z,3.50
2023-03-05T10:34:06.369Z,3.40
2023-03-05T10:36:49.164Z,3.50
2023-03-05T10:39:52.751Z,3.50
2023-03-05T10:42:32.087Z,3.50
2023-03-05T10:45:01.665Z,3.50
2023-03-05T10:47:40.424Z,3.50
2023-03-05T10:50:18.300Z,3.50
2023-03-05T10:52:51.653Z,3.50
2023-03-05T10:55:22.541Z,3.50
2023-03-05T10:57:50.659Z,3.60
2023-03-05T11:00:22.799Z,3.50
2023-03-05T11:02:58.829Z,3.50
2023-03-05T11:05:44.615Z,3.50
2023-03-05T11:08:31.625Z,3.40
2023-03-05T11:11:15.745Z,3.50
2023-03-05T11:14:04.204Z,3.60
2023-03-05T11:16:35.198Z,3.70
2023-03-05T11:19:19.800Z,3.70
2023-03-05T11:22:05.517Z,3.70
2023-03-05T11:24:33.849Z,3.80
2023-03-05T11:27:01.958Z,3.80
2023-03-05T11:29:32.717Z,3.80
2023-03-05T11:32:17.466Z,3.80
2023-03-05T11:34:46.964Z,3.80
2023-03-05T11:37:24.189Z,3.90
2023-03-05T11:40:15.501Z,4.00
2023-03-05T11:42:44.952Z,4.00
2023-03-05T11:45:18.929Z,4.00
2023-03-05T11:47:50.483Z,4.00
2023-03-05T11:50:24.250Z,4.00
2023-03-05T11:52:55.326Z,4.10
2023-03-05T11:55:29.374Z,4.10
2023-03-05T11:58:05.800Z,4.10
2023-03-05T12:00:37.505Z,4.20
2023-03-05T12:03:12.355Z,4.20
2023-03-05T12:05:45.276Z,4.20
2023-03-05T12:08:16.586Z,4.20
2023-03-05T12:10:44.728Z,4.20
2023-03-05T12:13:19.508Z,4.30
2023-03-05T12:16:12.279Z,4.30
2023-03-05T12:18:49.348Z,4.30
2023-03-05T12:21:28.731Z,4.40
2023-03-05T12:24:01.380Z,4.40
2023-03-05T12:26:56.112Z,4.50
2023-03-05T12:29:38.598Z,4.60
2023-03-05T12:32:28.901Z,4.50
2023-03-05T12:35:01.118Z,4.50
2023-03-05T12:38:26.490Z,4.50
2023-03-05T12:41:35.775Z,4.50
2023-03-05T12:44:21.341Z,4.50
2023-03-05T12:47:18.361Z,4.50
2023-03-05T12:49:48.641Z,4.50
2023-03-05T12:52:25.030Z,4.50
2023-03-05T12:55:04.829Z,4.40
2023-03-05T12:57:34.809Z,4.40
2023-03-05T13:00:10.961Z,4.40
2023-03-05T13:02:42.175Z,4.30
2023-03-05T13:05:20.810Z,4.30
2023-03-05T13:07:49.081Z,4.30
2023-03-05T13:10:25.625Z,4.30
2023-03-05T13:12:56.982Z,4.20
2023-03-05T13:15:27.072Z,4.20
2023-03-05T13:17:57.991Z,4.20
2023-03-05T13:20:29.898Z,4.10
2023-03-05T13:23:20.597Z,4.20
2023-03-05T13:25:59.580Z,4.20
2023-03-05T13:28:30.022Z,4.20
2023-03-05T13:30:59.682Z,4.20
2023-03-05T13:33:30.317Z,4.10
2023-03-05T13:35:59.372Z,4.10
2023-03-05T13:38:33.945Z,4.10
2023-03-05T13:41:19.508Z,4.10
2023-03-05T13:43:51.479Z,4.10
2023-03-05T13:46:28.397Z,4.00
2023-03-05T13:48:56.761Z,4.00
2023-03-05T13:51:25.748Z,3.90
2023-03-05T13:53:54.409Z,3.90
2023-03-05T13:56:22.756Z,3.80
2023-03-05T13:58:54.561Z,3.80
2023-03-05T14:01:33.708Z,3.80
2023-03-05T14:04:08.131Z,3.80
2023-03-05T14:06:42.248Z,3.80
2023-03-05T14:09:20.766Z,3.80
2023-03-05T14:12:01.255Z,3.80
2023-03-05T14:14:32.403Z,3.80
2023-03-05T14:17:21.874Z,3.80
2023-03-05T14:19:50.182Z,3.80
2023-03-05T14:22:32.470Z,3.80
2023-03-05T14:25:00.547Z,3.80
2023-03-05T14:27:32.600Z,3.80
2023-03-05T14:30:02.431Z,3.80
2023-03-05T14:32:34.483Z,3.80
2023-03-05T14:35:05.031Z,3.80
2023-03-05T14:37:36.861Z,3.70
2023-03-05T14:40:07.336Z,3.70
2023-03-05T14:42:39.005Z,3.70
2023-03-05T14:45:17.640Z,3.60
2023-03-05T14:47:46.193Z,3.60
2023-03-05T14:50:17.780Z,3.60
2023-03-05T14:52:47.227Z,3.50
2023-03-05T14:55:16.430Z,3.50
2023-03-05T14:57:45.035Z,3.50
2023-03-05T15:00:19.197Z,3.40
2023-03-05T15:02:47.641Z,3.40
2023-03-05T15:05:16.131Z,3.40
2023-03-05T15:07:45.208Z,3.40
2023-03-05T15:10:16.928Z,3.40
2023-03-05T15:12:45.466Z,3.40
2023-03-05T15:15:15.686Z,3.30
2023-03-05T15:17:47.944Z,3.40
2023-03-05T15:20:20.487Z,3.30
2023-03-05T15:22:48.533Z,3.20
2023-03-05T15:25:17.077Z,3.30
2023-03-05T15:27:46.165Z,3.20
2023-03-05T15:30:23.125Z,3.20
2023-03-05T15:32:54.140Z,3.20
2023-03-05T15:35:22.893Z,3.20
2023-03-05T15:37:51.082Z,3.20
2023-03-05T15:40:19.603Z,3.20
2023-03-05T15:42:48.189Z,3.10
2023-03-05T15:45:16.787Z,3.10
2023-03-05T15:47:44.812Z,3.10
2023-03-05T15:50:15.533Z,3.10
2023-03-05T15:52:43.777Z,3.00
2023-03-05T15:55:12.511Z,3.00
2023-03-05T15:57:46.175Z,3.00
2023-03-05T16:00:16.310Z,2.90
2023-03-05T16:02:44.431Z,2.90
2023-03-05T16:05:13.834Z,2.90
2023-03-05T16:07:45.432Z,2.90
2023-03-05T16:10:17.582Z,2.90
2023-03-05T16:12:47.493Z,2.90
2023-03-05T16:15:19.425Z,2.80
2023-03-05T16:17:51.268Z,2.80
2023-03-05T16:20:21.650Z,2.80
2023-03-05T16:22:49.851Z,2.80
2023-03-05T16:25:18.908Z,2.80
2023-03-05T16:27:46.960Z,2.80
2023-03-05T16:30:17.147Z,2.70
2023-03-05T16:32:45.339Z,2.80
2023-03-05T16:35:13.640Z,2.70
2023-03-05T16:37:43.310Z,2.80
2023-03-05T16:40:13.059Z,2.80
2023-03-05T16:42:41.951Z,2.70
2023-03-05T16:45:11.662Z,2.70
2023-03-05T16:47:40.469Z,2.70
2023-03-05T16:50:10.462Z,2.70
2023-03-05T16:52:38.652Z,2.70
2023-03-05T16:55:08.699Z,2.60
2023-03-05T16:57:39.376Z,2.60
2023-03-05T17:00:09.170Z,2.60
2023-03-05T17:02:37.256Z,2.70
2023-03-05T17:05:05.892Z,2.70
2023-03-05T17:07:33.954Z,2.60
2023-03-05T17:10:02.087Z,2.70
2023-03-05T17:12:31.573Z,2.60
2023-03-05T17:14:59.589Z,2.60
2023-03-05T17:17:27.645Z,2.60
2023-03-05T17:19:55.642Z,2.70
2023-03-05T17:22:23.805Z,2.60
2023-03-05T17:24:51.859Z,2.70
2023-03-05T17:27:22.612Z,2.70
2023-03-05T17:29:52.030Z,2.70
2023-03-05T17:32:20.205Z,2.70
2023-03-05T17:34:48.310Z,2.70
2023-03-05T17:37:19.237Z,2.70
2023-03-05T17:39:47.297Z,2.70
2023-03-05T17:42:16.497Z,2.70
2023-03-05T17:44:44.829Z,2.70
2023-03-05T17:47:14.229Z,2.70
2023-03-05T17:49:42.571Z,2.70
2023-03-05T17:52:10.806Z,2.70
2023-03-05T17:54:38.923Z,2.70
2023-03-05T17:57:07.383Z,2.70
2023-03-05T17:59:35.397Z,2.70
2023-03-05T18:02:03.648Z,2.70
2023-03-05T18:04:33.940Z,2.70
2023-03-05T18:07:02.682Z,2.70
2023-03-05T18:09:30.835Z,2.70
2023-03-05T18:11:58.951Z,2.60
2023-03-05T18:14:28.603Z,2.70
2023-03-05T18:16:58.231Z,2.60
2023-03-05T18:19:26.313Z,2.70
2023-03-05T18:21:55.707Z,2.70
2023-03-05T18:24:23.867Z,2.70
2023-03-05T18:26:51.943Z,2.70
2023-03-05T18:29:20.023Z,2.70
2023-03-05T18:31:48.172Z,2.70
2023-03-05T18:34:17.591Z,2.70
2023-03-05T18:36:45.663Z,2.70
2023-03-05T18:39:16.336Z,2.70
2023-03-05T18:41:44.487Z,2.70
2023-03-05T18:44:13.448Z,2.70
2023-03-05T18:46:41.888Z,2.80
2023-03-05T18:49:10.102Z,2.70
2023-03-05T18:51:38.294Z,2.80
2023-03-05T18:54:06.397Z,2.70
2023-03-05T18:56:37.450Z,2.80
2023-03-05T18:59:05.848Z,2.80
2023-03-05T19:01:34.419Z,2.80
2023-03-05T19:04:02.565Z,2.70
2023-03-05T19:06:30.796Z,2.70
2023-03-05T19:09:00.849Z,2.70
2023-03-05T19:11:28.852Z,2.70
2023-03-05T19:13:58.529Z,2.70
2023-03-05T19:16:30.995Z,2.70
2023-03-05T19:19:05.153Z,2.70
2023-03-05T19:21:33.693Z,2.70
2023-03-05T19:24:01.786Z,2.70
2023-03-05T19:26:29.940Z,2.70
2023-03-05T19:28:59.350Z,2.70
2023-03-05T19:31:27.524Z,2.70
2023-03-05T19:33:55.667Z,2.70
2023-03-05T19:36:23.864Z,2.70
2023-03-05T19:38:52.420Z,2.60
2023-03-05T19:41:21.765Z,2.70
2023-03-05T19:43:50.943Z,2.60
2023-03-05T19:46:20.519Z,2.60
2023-03-05T19:48:49.496Z,2.60
2023-03-05T19:51:20.555Z,2.60
2023-03-05T19:53:49.189Z,2.60
2023-03-05T19:56:18.529Z,2.60
2023-03-05T19:58:49.033Z,2.60
2023-03-05T20:01:19.170Z,2.60
2023-03-05T20:03:50.101Z,2.60
2023-03-05T20:06:18.449Z,2.60
2023-03-05T20:08:46.751Z,2.60
2023-03-05T20:11:16.874Z,2.60
2023-03-05T20:13:45.505Z,2.70
2023-03-05T20:16:18.224Z,2.60
2023-03-05T20:18:52.627Z,2.70
2023-03-05T20:21:23.279Z,2.60
2023-03-05T20:23:51.741Z,2.60
2023-03-05T20:26:20.439Z,2.60
2023-03-05T20:28:49.132Z,2.60
2023-03-05T20:31:20.607Z,2.60
2023-03-05T20:33:50.226Z,2.60
2023-03-05T20:36:18.303Z,2.60
2023-03-05T20:38:47.044Z,2.60
2023-03-05T20:41:17.692Z,2.60
2023-03-05T20:43:48.799Z,2.60
2023-03-05T20:46:18.967Z,2.60
2023-03-05T20:48:50.732Z,2.60
2023-03-05T20:51:22.682Z,2.60
2023-03-05T20:53:51.044Z,2.60
2023-03-05T20:56:19.452Z,2.60
2023-03-05T20:58:47.605Z,2.50
2023-03-05T21:01:15.636Z,2.50
2023-03-05T21:03:43.662Z,2.50
2023-03-05T21:06:13.070Z,2.50
2023-03-05T21:08:41.486Z,2.50
2023-03-05T21:11:11.320Z,2.40
2023-03-05T21:13:39.574Z,2.50
2023-03-05T21:16:09.875Z,2.40
2023-03-05T21:18:37.990Z,2.40
2023-03-05T21:21:06.463Z,2.40
2023-03-05T21:23:36.099Z,2.40
2023-03-05T21:26:04.596Z,2.40
2023-03-05T21:28:33.178Z,2.40
2023-03-05T21:31:08.342Z,2.40
2023-03-05T21:33:36.493Z,2.40
2023-03-05T21:36:06.411Z,2.40
2023-03-05T21:38:35.870Z,2.40
2023-03-05T21:41:05.346Z,2.30
2023-03-05T21:43:34.031Z,2.30
2023-03-05T21:46:04.307Z,2.40
2023-03-05T21:48:33.214Z,2.30
2023-03-05T21:51:01.315Z,2.30
2023-03-05T21:53:29.353Z,2.30
2023-03-05T21:56:10.958Z,2.20
2023-03-05T21:58:39.077Z,2.20
2023-03-05T22:01:07.168Z,2.20
2023-03-05T22:03:35.229Z,2.20
2023-03-05T22:06:03.269Z,2.20
2023-03-05T22:08:31.591Z,2.10
2023-03-05T22:11:00.953Z,2.10
2023-03-05T22:13:28.981Z,2.10
2023-03-05T22:15:59.407Z,2.10
2023-03-05T22:18:29.697Z,2.10
2023-03-05T22:20:58.821Z,2.10
2023-03-05T22:23:29.257Z,2.10
2023-03-05T22:25:57.780Z,2.10
2023-03-05T22:28:28.060Z,2.10
2023-03-05T22:30:56.847Z,2.10
2023-03-05T22:33:25.380Z,2.10
2023-03-05T22:35:53.593Z,2.00
2023-03-05T22:38:21.791Z,2.00
2023-03-05T22:40:51.354Z,2.00
2023-03-05T22:43:20.674Z,2.00
2023-03-05T22:45:50.093Z,2.00
2023-03-05T22:48:18.134Z,2.10
2023-03-05T22:50:46.142Z,2.00
2023-03-05T22:53:14.317Z,2.00
2023-03-05T22:55:42.968Z,2.00
2023-03-05T22:58:11.169Z,2.00
2023-03-05T23:00:39.392Z,2.00
2023-03-05T23:03:08.788Z,2.00
2023-03-05T23:05:39.081Z,2.00
2023-03-05T23:08:07.358Z,2.00
2023-03-05T23:10:35.659Z,2.00
2023-03-05T23:13:03.756Z,2.00
2023-03-05T23:15:34.074Z,2.00
2023-03-05T23:18:03.099Z,2.00
2023-03-05T23:20:34.532Z,2.00
2023-03-05T23:23:03.334Z,2.00
2023-03-05T23:25:33.482Z,2.00
2023-03-05T23:28:02.533Z,2.00
2023-03-05T23:30:31.708Z,2.00
2023-03-05T23:33:04.048Z,2.00
2023-03-05T23:35:36.155Z,2.00
2023-03-05T23:38:06.302Z,2.00
2023-03-05T23:40:37.301Z,2.00
2023-03-05T23:43:05.676Z,2.00
2023-03-05T23:45:33.964Z,2.00
2023-03-05T23:48:03.311Z,2.10
2023-03-05T23:50:35.167Z,2.10
2023-03-05T23:53:03.741Z,2.10
2023-03-05T23:55:34.751Z,2.10
2023-03-05T23:58:03.442Z,2.10
